createdAt,value
2023-06-11T00:02:57.871Z,14.31
2023-06-11T00:08:01.828Z,14.21
2023-06-11T00:13:04.425Z,14.14
2023-06-11T00:18:07.060Z,14.04
2023-06-11T00:23:10.389Z,13.96
2023-06-11T00:28:13.246Z,13.88
2023-06-11T00:33:15.992Z,13.81
2023-06-11T00:38:20.785Z,13.74
2023-06-11T00:43:24.912Z,13.67
2023-06-11T00:48:27.387Z,13.59
2023-06-11T00:53:29.878Z,13.52
2023-06-11T00:58:34.226Z,13.45
2023-06-11T01:03:36.774Z,13.37
2023-06-11T01:08:41.361Z,13.28
2023-06-11T01:13:44.065Z,13.20
2023-06-11T01:19:19.466Z,13.11
2023-06-11T01:24:52.167Z,13.02
2023-06-11T01:29:58.219Z,12.95
2023-06-11T01:35:04.335Z,12.88
2023-06-11T01:40:07.808Z,12.83
2023-06-11T01:45:10.960Z,12.78
2023-06-11T01:50:13.740Z,12.71
2023-06-11T01:55:16.477Z,12.66
2023-06-11T02:00:19.374Z,12.62
2023-06-11T02:05:21.845Z,12.56
2023-06-11T02:10:24.327Z,12.52
2023-06-11T02:15:27.102Z,12.48
2023-06-11T02:20:29.727Z,12.43
2023-06-11T02:25:32.501Z,12.37
2023-06-11T02:30:35.024Z,12.33
2023-06-11T02:35:37.621Z,12.30
2023-06-11T02:40:40.180Z,12.28
2023-06-11T02:45:42.814Z,12.26
2023-06-11T02:50:45.490Z,12.24
2023-06-11T02:55:48.041Z,12.23
2023-06-11T03:00:50.563Z,12.25
2023-06-11T03:05:53.117Z,12.26
2023-06-11T03:10:55.727Z,12.28
2023-06-11T03:15:58.379Z,12.31
2023-06-11T03:21:00.925Z,12.33
2023-06-11T03:26:03.816Z,12.35
2023-06-11T03:31:06.479Z,12.38
2023-06-11T03:36:09.060Z,12.42
2023-06-11T03:41:11.924Z,12.48
2023-06-11T03:46:14.435Z,12.54
2023-06-11T03:51:17.402Z,12.61
2023-06-11T03:56:19.918Z,12.72
2023-06-11T04:01:22.525Z,12.82
2023-06-11T04:06:25.104Z,12.93
2023-06-11T04:11:27.848Z,13.05
2023-06-11T04:16:30.376Z,13.16
2023-06-11T04:21:32.964Z,13.30
2023-06-11T04:26:37.983Z,13.45
2023-06-11T04:31:43.183Z,13.60
2023-06-11T04:36:45.769Z,13.74
2023-06-11T04:41:49.542Z,13.88
2023-06-11T04:46:58.901Z,14.06
2023-06-11T04:52:01.780Z,15.10
2023-06-11T04:57:04.538Z,18.50
2023-06-11T05:02:07.377Z,21.74
2023-06-11T05:07:10.106Z,24.19
2023-06-11T05:12:13.143Z,26.10
2023-06-11T05:17:17.814Z,27.84
2023-06-11T05:22:21.338Z,29.06
2023-06-11T05:27:25.665Z,30.12
2023-06-11T05:32:32.329Z,30.83
2023-06-11T05:37:35.122Z,31.17
2023-06-11T05:42:38.234Z,31.68
2023-06-11T05:47:41.096Z,31.95
2023-06-11T05:52:45.674Z,32.18
2023-06-11T05:57:48.183Z,32.71
2023-06-11T06:02:50.918Z,33.02
2023-06-11T06:07:53.626Z,33.26
2023-06-11T06:12:56.389Z,34.02
2023-06-11T06:17:58.913Z,34.43
2023-06-11T06:23:01.528Z,34.45
2023-06-11T06:28:07.009Z,34.78
2023-06-11T06:33:09.640Z,34.81
2023-06-11T06:38:12.385Z,34.83
2023-06-11T06:43:15.009Z,35.01
2023-06-11T06:48:18.659Z,35.58
2023-06-11T06:53:21.534Z,35.61
2023-06-11T06:58:24.402Z,35.76
2023-06-11T07:03:26.924Z,35.71
2023-06-11T07:08:29.545Z,35.64
2023-06-11T07:13:32.091Z,35.76
2023-06-11T07:18:34.796Z,36.06
2023-06-11T07:23:37.725Z,36.27
2023-06-11T07:28:41.929Z,36.52
2023-06-11T07:33:48.350Z,36.62
2023-06-11T07:38:50.871Z,36.59
2023-06-11T07:43:53.458Z,36.33
2023-06-11T07:48:57.097Z,36.26
2023-06-11T07:54:01.304Z,35.82
2023-06-11T07:59:04.620Z,35.66
2023-06-11T08:04:07.227Z,35.26
2023-06-11T08:09:10.262Z,34.61
2023-06-11T08:14:12.762Z,33.98
2023-06-11T08:19:15.589Z,33.36
2023-06-11T08:24:19.686Z,32.46
2023-06-11T08:29:22.433Z,31.73
2023-06-11T08:34:25.039Z,31.31
2023-06-11T08:39:27.644Z,30.79
2023-06-11T08:44:30.278Z,30.37
2023-06-11T08:49:37.143Z,29.89
2023-06-11T08:54:41.786Z,29.57
2023-06-11T08:59:44.253Z,29.34
2023-06-11T09:04:46.974Z,29.03
2023-06-11T09:10:02.837Z,28.89
2023-06-11T09:15:06.628Z,28.44
2023-06-11T09:20:12.296Z,28.22
2023-06-11T09:25:19.343Z,28.32
2023-06-11T09:30:22.182Z,28.65
2023-06-11T09:35:24.944Z,28.56
2023-06-11T09:40:27.813Z,28.62
2023-06-11T09:45:32.600Z,28.07
2023-06-11T09:50:36.836Z,27.15
2023-06-11T09:55:39.528Z,26.31
2023-06-11T10:00:42.371Z,25.63
2023-06-11T10:05:45.169Z,25.18
2023-06-11T10:10:55.139Z,24.76
2023-06-11T10:16:02.248Z,24.38
2023-06-11T10:21:06.082Z,24.24
2023-06-11T10:26:13.093Z,24.14
2023-06-11T10:31:37.347Z,24.03
2023-06-11T10:36:43.474Z,23.86
2023-06-11T10:41:46.290Z,23.91
2023-06-11T10:46:50.378Z,24.06
2023-06-11T10:51:53.991Z,24.07
2023-06-11T10:56:57.308Z,24.07
2023-06-11T11:02:00.394Z,23.99
2023-06-11T11:07:09.052Z,24.02
2023-06-11T11:12:12.709Z,24.06
2023-06-11T11:17:16.322Z,24.24
2023-06-11T11:22:19.290Z,24.40
2023-06-11T11:27:24.760Z,24.52
2023-06-11T11:32:30.633Z,24.32
2023-06-11T11:37:34.406Z,24.18
2023-06-11T11:42:53.739Z,24.35
2023-06-11T11:47:56.589Z,24.46
2023-06-11T11:53:04.338Z,24.46
2023-06-11T11:58:13.975Z,24.20
2023-06-11T12:03:20.362Z,24.05
2023-06-11T12:08:23.274Z,24.05
2023-06-11T12:13:26.720Z,24.22
2023-06-11T12:18:29.405Z,24.39
2023-06-11T12:23:31.971Z,24.37
2023-06-11T12:28:34.541Z,24.45
2023-06-11T12:33:37.698Z,24.58
2023-06-11T12:38:40.620Z,24.53
2023-06-11T12:43:43.492Z,24.43
2023-06-11T12:48:46.516Z,24.28
2023-06-11T12:53:49.086Z,24.27
2023-06-11T12:58:51.744Z,24.29
2023-06-11T13:03:55.833Z,24.23
2023-06-11T13:08:58.458Z,24.19
2023-06-11T13:14:01.446Z,24.24
2023-06-11T13:19:05.426Z,24.20
2023-06-11T13:24:08.202Z,24.28
2023-06-11T13:29:10.839Z,24.40
2023-06-11T13:34:13.668Z,24.44
2023-06-11T13:39:16.288Z,24.48
2023-06-11T13:44:19.195Z,24.55
2023-06-11T13:49:23.752Z,24.40
2023-06-11T13:54:29.201Z,24.35
2023-06-11T13:59:32.542Z,24.49
2023-06-11T14:04:35.100Z,24.59
2023-06-11T14:09:37.610Z,24.53
2023-06-11T14:14:40.163Z,24.41
2023-06-11T14:19:45.283Z,24.28
2023-06-11T14:24:47.784Z,24.31
2023-06-11T14:29:50.553Z,24.31
2023-06-11T14:34:53.313Z,24.38
2023-06-11T14:39:56.061Z,24.42
2023-06-11T14:45:03.334Z,24.40
2023-06-11T14:50:06.839Z,24.49
2023-06-11T14:55:09.683Z,24.56
2023-06-11T15:00:14.495Z,24.69
2023-06-11T15:05:17.371Z,24.77
2023-06-11T15:10:20.061Z,24.65
2023-06-11T15:15:22.800Z,24.50
2023-06-11T15:20:25.357Z,24.41
2023-06-11T15:25:27.934Z,24.46
2023-06-11T15:30:31.320Z,24.40
2023-06-11T15:35:33.897Z,24.28
2023-06-11T15:40:36.560Z,24.26
2023-06-11T15:45:39.188Z,24.28
2023-06-11T15:50:41.836Z,24.22
2023-06-11T15:55:44.319Z,24.14
2023-06-11T16:00:47.224Z,24.03
2023-06-11T16:05:49.967Z,23.94
2023-06-11T16:10:52.478Z,23.94
2023-06-11T16:15:55.074Z,23.82
2023-06-11T16:20:57.709Z,23.71
2023-06-11T16:26:00.354Z,23.63
2023-06-11T16:31:03.252Z,23.61
2023-06-11T16:36:05.840Z,23.60
2023-06-11T16:41:08.519Z,23.60
2023-06-11T16:46:11.088Z,23.54
2023-06-11T16:51:14.506Z,23.44
2023-06-11T16:56:19.717Z,23.39
2023-06-11T17:01:23.245Z,23.31
2023-06-11T17:06:27.605Z,23.20
2023-06-11T17:11:30.225Z,23.12
2023-06-11T17:16:32.890Z,23.02
2023-06-11T17:21:35.713Z,22.95
2023-06-11T17:26:39.304Z,22.86
2023-06-11T17:31:41.898Z,22.79
2023-06-11T17:36:44.578Z,22.71
2023-06-11T17:41:47.579Z,22.61
2023-06-11T17:46:50.272Z,22.51
2023-06-11T17:51:53.349Z,22.38
2023-06-11T17:56:55.946Z,22.29
2023-06-11T18:01:58.656Z,22.19
2023-06-11T18:07:03.416Z,22.09
2023-06-11T18:12:08.611Z,21.94
2023-06-11T18:17:16.007Z,21.78
2023-06-11T18:22:23.586Z,21.60
2023-06-11T18:27:27.257Z,21.42
2023-06-11T18:32:30.281Z,21.26
2023-06-11T18:37:32.982Z,21.09
2023-06-11T18:42:35.628Z,20.91
2023-06-11T18:47:40.119Z,20.72
2023-06-11T18:52:43.413Z,20.52
2023-06-11T18:57:46.648Z,20.35
2023-06-11T19:02:49.329Z,20.20
2023-06-11T19:07:52.586Z,20.05
2023-06-11T19:12:55.372Z,19.90
2023-06-11T19:17:58.434Z,19.77
2023-06-11T19:23:01.466Z,19.64
2023-06-11T19:28:04.538Z,19.51
2023-06-11T19:33:07.364Z,19.37
2023-06-11T19:38:10.517Z,19.23
2023-06-11T19:43:14.996Z,19.11
2023-06-11T19:48:20.412Z,18.96
2023-06-11T19:53:23.251Z,18.82
2023-06-11T19:58:26.449Z,18.69
2023-06-11T20:03:28.923Z,18.55
2023-06-11T20:08:33.153Z,18.41
2023-06-11T20:13:36.327Z,18.28
2023-06-11T20:18:41.279Z,18.14
2023-06-11T20:23:44.710Z,18.03
2023-06-11T20:28:47.288Z,17.92
2023-06-11T20:33:50.255Z,17.81
2023-06-11T20:38:53.148Z,17.69
2023-06-11T20:43:55.719Z,17.57
2023-06-11T20:48:58.544Z,17.46
2023-06-11T20:54:01.105Z,17.35
2023-06-11T20:59:03.586Z,17.26
2023-06-11T21:04:06.294Z,17.17
2023-06-11T21:09:09.147Z,17.06
2023-06-11T21:14:14.602Z,16.94
2023-06-11T21:19:19.671Z,16.83
2023-06-11T21:24:22.212Z,16.72
2023-06-11T21:29:24.900Z,16.63
2023-06-11T21:34:27.604Z,16.52
2023-06-11T21:39:30.201Z,16.44
2023-06-11T21:44:32.792Z,16.34
2023-06-11T21:49:35.461Z,16.23
2023-06-11T21:54:38.748Z,16.14
2023-06-11T21:59:43.132Z,16.05
2023-06-11T22:04:45.643Z,15.97
2023-06-11T22:09:48.221Z,15.87
2023-06-11T22:14:50.970Z,15.79
2023-06-11T22:19:53.882Z,15.70
2023-06-11T22:24:58.707Z,15.61
2023-06-11T22:30:01.882Z,15.52
2023-06-11T22:35:05.566Z,15.44
2023-06-11T22:40:09.157Z,15.38
2023-06-11T22:45:12.240Z,15.31
2023-06-11T22:50:15.226Z,15.25
2023-06-11T22:55:18.125Z,15.20
2023-06-11T23:00:20.741Z,15.14
2023-06-11T23:05:25.501Z,15.06
2023-06-11T23:10:28.072Z,14.96
2023-06-11T23:15:30.774Z,14.86
2023-06-11T23:20:34.411Z,14.73
2023-06-11T23:25:38.348Z,14.60
2023-06-11T23:30:41.733Z,14.49
2023-06-11T23:35:44.451Z,14.37
2023-06-11T23:40:47.003Z,14.25
2023-06-11T23:45:49.799Z,14.13
2023-06-11T23:50:52.500Z,14.00
2023-06-11T23:55:55.232Z,13.89
